Terminal Aerodrome Forecast
Issued by NWS Goodland, KS

Home | Current Version | Previous Version | Text Only | Print | Product List | Glossary On
Versions: 1 2 3 4 5 6 7 8 9 10 11 12 13 14 15 16 17 18 19 20 21 22 23
000
FTUS43 KGLD 250523
TAFGLD
TAF
KGLD 250523Z 2506/2606 12010KT P6SM SKC WS020/18035KT
     FM250800 23009KT P6SM SKC WS020/20025KT
     FM250900 27008KT 5SM BR BKN030
      TEMPO 2510/2513 2SM BR BKN015
     FM251500 32009KT P6SM BKN040
     FM251800 35007KT P6SM SKC
     FM251900 31007KT P6SM FEW090
     FM252000 24007KT P6SM FEW090
     FM252200 20007KT P6SM FEW090
     FM260100 16007KT P6SM FEW090 FEW150
     FM260500 12007KT P6SM SKC=

USA.gov is the U.S. government's official web portal to all federal, state and local government web resources and services.